createdAt,value
2018-07-28T00:00:14.185Z,0.00
2018-07-28T00:01:14.195Z,0.00
2018-07-28T00:02:14.200Z,0.00
2018-07-28T00:03:14.208Z,0.00
2018-07-28T00:04:14.216Z,0.00
2018-07-28T00:05:14.228Z,0.00
2018-07-28T00:06:14.232Z,0.00
2018-07-28T00:07:14.241Z,0.00
2018-07-28T00:08:14.248Z,0.00
2018-07-28T00:09:14.256Z,0.00
2018-07-28T00:10:14.266Z,0.00
2018-07-28T00:11:14.272Z,0.00
2018-07-28T00:12:14.280Z,0.00
2018-07-28T00:13:14.287Z,0.00
2018-07-28T00:14:14.297Z,0.00
2018-07-28T00:15:14.302Z,0.00
2018-07-28T00:16:14.311Z,0.00
2018-07-28T00:17:14.320Z,0.00
2018-07-28T00:18:14.328Z,0.00
2018-07-28T00:19:14.337Z,0.00
2018-07-28T00:20:14.345Z,0.00
2018-07-28T00:21:14.352Z,0.00
2018-07-28T00:22:14.359Z,0.00
2018-07-28T00:23:14.367Z,0.00
2018-07-28T00:24:14.374Z,0.00
2018-07-28T00:25:14.383Z,0.00
2018-07-28T00:26:14.391Z,0.00
2018-07-28T00:27:14.398Z,0.00
2018-07-28T00:28:14.405Z,0.00
2018-07-28T00:29:14.414Z,0.00
2018-07-28T00:30:14.423Z,0.00
2018-07-28T00:31:14.433Z,0.00
2018-07-28T00:32:14.437Z,0.00
2018-07-28T00:33:14.444Z,0.00
2018-07-28T00:34:14.455Z,0.00
2018-07-28T00:35:14.462Z,0.00
2018-07-28T00:36:14.469Z,0.00
2018-07-28T00:37:14.477Z,0.00
2018-07-28T00:38:14.484Z,0.00
2018-07-28T00:39:14.493Z,0.00
2018-07-28T00:40:14.500Z,0.00
2018-07-28T00:41:14.513Z,0.00
2018-07-28T00:42:14.515Z,0.00
2018-07-28T00:43:14.523Z,0.00
2018-07-28T00:44:14.531Z,0.00
2018-07-28T00:45:14.537Z,0.00
2018-07-28T00:46:14.547Z,0.00
2018-07-28T00:47:14.556Z,0.00
2018-07-28T00:48:14.561Z,0.00
2018-07-28T00:49:14.570Z,0.00
2018-07-28T00:50:14.577Z,0.00
2018-07-28T00:51:14.585Z,0.00
2018-07-28T00:52:14.593Z,0.00
2018-07-28T00:53:14.600Z,0.00
2018-07-28T00:54:14.641Z,0.00
2018-07-28T00:55:14.617Z,0.00
2018-07-28T00:56:14.623Z,0.00
2018-07-28T00:57:14.631Z,0.00
2018-07-28T00:58:14.640Z,0.00
2018-07-28T00:59:14.649Z,0.00
2018-07-28T01:00:14.654Z,0.00
2018-07-28T01:01:14.661Z,0.00
2018-07-28T01:02:14.669Z,0.00
2018-07-28T01:03:14.677Z,0.00
2018-07-28T01:04:14.683Z,0.00
2018-07-28T01:05:14.692Z,0.00
2018-07-28T01:06:14.699Z,0.00
2018-07-28T01:07:14.706Z,0.00
2018-07-28T01:08:14.716Z,0.00
2018-07-28T01:09:14.723Z,0.00
2018-07-28T01:10:14.733Z,0.00
2018-07-28T01:11:14.737Z,0.00
2018-07-28T01:12:14.743Z,0.00
2018-07-28T01:13:14.752Z,0.00
2018-07-28T01:14:14.760Z,0.00
2018-07-28T01:15:14.767Z,0.00
2018-07-28T01:16:14.774Z,0.00
2018-07-28T01:17:14.781Z,0.00
2018-07-28T01:18:14.789Z,0.00
2018-07-28T01:19:14.798Z,0.00
2018-07-28T01:20:14.804Z,0.00
2018-07-28T01:21:14.814Z,0.00
2018-07-28T01:22:14.818Z,0.00
2018-07-28T01:23:14.827Z,0.00
2018-07-28T01:24:14.834Z,0.00
2018-07-28T01:25:14.842Z,0.00
2018-07-28T01:26:14.850Z,0.00
2018-07-28T01:27:14.857Z,0.00
2018-07-28T01:28:14.866Z,0.00
2018-07-28T01:29:14.872Z,0.00
2018-07-28T01:30:14.880Z,0.00
2018-07-28T01:31:14.887Z,0.00
2018-07-28T01:32:14.892Z,0.00
2018-07-28T01:33:14.901Z,0.00
2018-07-28T01:34:14.910Z,0.00
2018-07-28T01:35:14.916Z,0.00
2018-07-28T01:36:14.923Z,0.00
2018-07-28T01:37:14.932Z,0.00
2018-07-28T01:38:14.938Z,0.00
2018-07-28T01:39:14.945Z,0.00
2018-07-28T01:40:14.953Z,0.00
2018-07-28T01:41:14.960Z,0.00
2018-07-28T01:42:14.967Z,0.00
2018-07-28T01:43:14.975Z,0.00
2018-07-28T01:44:14.984Z,0.00
2018-07-28T01:45:14.989Z,0.00
2018-07-28T01:46:14.996Z,0.00
2018-07-28T01:47:15.004Z,0.00
2018-07-28T01:48:15.011Z,0.00
2018-07-28T01:49:15.023Z,0.00
2018-07-28T01:50:15.027Z,0.00
2018-07-28T01:51:15.034Z,0.00
2018-07-28T01:52:15.041Z,0.00
2018-07-28T01:53:15.050Z,0.00
2018-07-28T01:54:15.056Z,0.00
2018-07-28T01:55:15.064Z,0.00
2018-07-28T01:56:15.069Z,0.00
2018-07-28T01:57:15.076Z,0.00
2018-07-28T01:58:15.085Z,0.00
2018-07-28T01:59:15.090Z,0.00
2018-07-28T02:00:15.097Z,0.00
2018-07-28T02:01:15.105Z,0.00
2018-07-28T02:02:15.113Z,0.00
2018-07-28T02:03:15.125Z,0.00
2018-07-28T02:04:15.125Z,0.00
2018-07-28T02:05:15.133Z,0.00
2018-07-28T02:06:15.141Z,0.00
2018-07-28T02:07:15.147Z,0.00
2018-07-28T02:08:15.154Z,0.00
2018-07-28T02:09:15.160Z,0.00
2018-07-28T02:10:15.168Z,0.00
2018-07-28T02:11:15.174Z,0.00
2018-07-28T02:12:15.182Z,0.00
2018-07-28T02:13:15.190Z,0.00
2018-07-28T02:14:15.197Z,0.00
2018-07-28T02:15:15.206Z,0.00
2018-07-28T02:16:15.213Z,0.00
2018-07-28T02:17:15.218Z,0.00
2018-07-28T02:18:15.225Z,0.00
2018-07-28T02:19:15.236Z,0.00
2018-07-28T02:20:15.240Z,0.00
2018-07-28T02:21:15.245Z,0.00
2018-07-28T02:22:15.252Z,0.00
2018-07-28T02:23:15.259Z,0.00
2018-07-28T02:24:15.266Z,0.00
2018-07-28T02:25:15.274Z,0.00
2018-07-28T02:26:15.279Z,0.00
2018-07-28T02:27:15.289Z,0.00
2018-07-28T02:28:15.294Z,0.00
2018-07-28T02:29:15.301Z,0.00
2018-07-28T02:30:15.308Z,0.00
2018-07-28T02:31:15.316Z,0.00
2018-07-28T02:32:15.322Z,0.00
2018-07-28T02:33:15.330Z,0.00
2018-07-28T02:34:15.337Z,0.00
2018-07-28T02:35:15.344Z,0.00
2018-07-28T02:36:15.357Z,0.00
2018-07-28T02:37:15.362Z,0.00
2018-07-28T02:38:15.365Z,0.00
2018-07-28T02:39:15.371Z,0.00
2018-07-28T02:40:15.377Z,0.00
2018-07-28T02:41:15.384Z,0.00
2018-07-28T02:42:15.392Z,0.00
2018-07-28T02:43:15.399Z,0.00
2018-07-28T02:44:15.405Z,0.00
2018-07-28T02:45:15.412Z,0.00
2018-07-28T02:46:15.418Z,0.00
2018-07-28T02:47:15.425Z,0.00
2018-07-28T02:48:15.433Z,0.00
2018-07-28T02:49:15.440Z,0.00
2018-07-28T02:50:15.448Z,0.00
2018-07-28T02:51:15.456Z,0.00
2018-07-28T02:52:15.459Z,0.00
2018-07-28T02:53:15.466Z,0.00
2018-07-28T02:54:15.474Z,0.00
2018-07-28T02:55:15.480Z,0.00
2018-07-28T02:56:15.486Z,0.00
2018-07-28T02:57:15.493Z,0.00
2018-07-28T02:58:15.500Z,0.00
2018-07-28T02:59:15.507Z,0.00
2018-07-28T03:00:15.534Z,0.00
2018-07-28T03:01:15.521Z,0.00
2018-07-28T03:02:15.527Z,0.00
2018-07-28T03:03:15.534Z,0.00
2018-07-28T03:04:15.541Z,0.00
2018-07-28T03:05:15.548Z,0.00
2018-07-28T03:06:15.555Z,0.00
2018-07-28T03:07:15.561Z,4.00
2018-07-28T03:08:15.567Z,4.00
2018-07-28T03:09:15.574Z,0.00
2018-07-28T03:10:15.580Z,4.00
2018-07-28T03:11:15.588Z,4.00
2018-07-28T03:12:15.593Z,0.00
2018-07-28T03:13:15.601Z,4.00
2018-07-28T03:14:15.605Z,8.00
2018-07-28T03:15:15.613Z,4.00
2018-07-28T03:16:15.620Z,4.00
2018-07-28T03:17:15.627Z,8.00
2018-07-28T03:18:15.633Z,8.00
2018-07-28T03:19:15.645Z,8.00
2018-07-28T03:20:15.646Z,8.00
2018-07-28T03:21:15.655Z,8.00
2018-07-28T03:22:15.659Z,12.00
2018-07-28T03:23:15.668Z,16.00
2018-07-28T03:24:15.675Z,16.00
2018-07-28T03:25:15.678Z,16.00
2018-07-28T03:26:15.686Z,24.00
2018-07-28T03:27:15.692Z,24.00
2018-07-28T03:28:15.697Z,24.00
2018-07-28T03:29:15.704Z,32.00
2018-07-28T03:30:15.710Z,32.00
2018-07-28T03:31:15.719Z,40.00
2018-07-28T03:32:15.722Z,44.00
2018-07-28T03:33:15.729Z,48.00
2018-07-28T03:34:15.738Z,56.00
2018-07-28T03:35:15.744Z,60.00
2018-07-28T03:36:15.748Z,64.00
2018-07-28T03:37:15.755Z,72.00
2018-07-28T03:38:15.762Z,80.00
2018-07-28T03:39:15.770Z,88.00
2018-07-28T03:40:15.774Z,96.00
2018-07-28T03:41:15.782Z,108.00
2018-07-28T03:42:15.788Z,112.00
2018-07-28T03:43:15.794Z,124.00
2018-07-28T03:44:15.800Z,132.00
2018-07-28T03:45:15.806Z,144.00
2018-07-28T03:46:15.814Z,152.00
2018-07-28T03:47:15.820Z,164.00
2018-07-28T03:48:15.825Z,176.00
2018-07-28T03:49:15.888Z,188.00
2018-07-28T03:50:15.839Z,204.00
2018-07-28T03:51:15.846Z,216.00
2018-07-28T03:52:15.851Z,228.00
2018-07-28T03:53:15.857Z,240.00
2018-07-28T03:54:15.863Z,256.00
2018-07-28T03:55:15.877Z,268.00
2018-07-28T03:56:15.875Z,280.00
2018-07-28T03:57:15.881Z,296.00
2018-07-28T03:58:15.888Z,312.00
2018-07-28T03:59:15.895Z,324.00
2018-07-28T04:00:15.903Z,340.00
2018-07-28T04:01:15.907Z,360.00
2018-07-28T04:02:15.914Z,376.00
2018-07-28T04:03:15.920Z,400.00
2018-07-28T04:04:15.954Z,420.00
2018-07-28T04:05:15.933Z,448.00
2018-07-28T04:06:15.947Z,476.00
2018-07-28T04:07:15.944Z,500.00
2018-07-28T04:08:15.957Z,528.00
2018-07-28T04:09:15.962Z,556.00
2018-07-28T04:10:16.010Z,584.00
2018-07-28T04:11:15.968Z,612.00
2018-07-28T04:12:15.975Z,644.00
2018-07-28T04:13:15.980Z,680.00
2018-07-28T04:14:16.038Z,724.00
2018-07-28T04:15:15.993Z,768.00
2018-07-28T04:16:16.000Z,812.00
2018-07-28T04:17:16.006Z,856.00
2018-07-28T04:18:16.014Z,896.00
2018-07-28T04:19:16.017Z,936.00
2018-07-28T04:20:16.025Z,980.00
2018-07-28T04:21:16.029Z,1016.00
2018-07-28T04:22:16.035Z,1052.00
2018-07-28T04:23:16.041Z,1092.00
2018-07-28T04:24:16.046Z,1132.00
2018-07-28T04:25:16.053Z,1180.00
2018-07-28T04:26:16.062Z,1228.00
2018-07-28T04:27:16.065Z,1288.00
2018-07-28T04:28:16.072Z,1340.00
2018-07-28T04:29:16.078Z,1384.00
2018-07-28T04:30:16.082Z,1424.00
2018-07-28T04:31:16.088Z,1464.00
2018-07-28T04:32:16.093Z,1508.00
2018-07-28T04:33:16.099Z,1560.00
2018-07-28T04:34:16.105Z,1616.00
2018-07-28T04:35:16.112Z,1676.00
2018-07-28T04:36:16.118Z,1720.00
2018-07-28T04:37:16.122Z,1764.00
2018-07-28T04:38:16.128Z,1812.00
2018-07-28T04:39:16.135Z,1848.00
2018-07-28T04:40:16.140Z,1872.00
2018-07-28T04:41:16.146Z,1888.00
2018-07-28T04:42:16.153Z,1908.00
2018-07-28T04:43:16.158Z,1932.00
2018-07-28T04:44:16.164Z,1952.00
2018-07-28T04:45:16.169Z,1976.00
2018-07-28T04:46:16.175Z,2004.00
2018-07-28T04:47:16.182Z,2032.00
2018-07-28T04:48:16.188Z,2056.00
2018-07-28T04:49:16.193Z,2084.00
2018-07-28T04:50:16.198Z,2116.00
2018-07-28T04:51:16.206Z,2160.00
2018-07-28T04:52:16.211Z,2212.00
2018-07-28T04:53:16.216Z,2260.00
2018-07-28T04:54:16.223Z,2316.00
2018-07-28T04:55:16.228Z,2376.00
2018-07-28T04:56:16.234Z,2468.00
2018-07-28T04:57:16.239Z,2544.00
2018-07-28T04:58:16.246Z,2552.00
2018-07-28T04:59:16.253Z,2580.00
2018-07-28T05:00:16.258Z,2632.00
2018-07-28T05:01:16.268Z,2752.00
2018-07-28T05:02:16.270Z,2820.00
2018-07-28T05:03:16.276Z,2872.00
2018-07-28T05:04:16.281Z,2920.00
2018-07-28T05:05:16.291Z,2964.00
2018-07-28T05:06:16.293Z,3012.00
2018-07-28T05:07:16.356Z,3056.00
2018-07-28T05:08:16.305Z,3100.00
2018-07-28T05:09:16.311Z,3140.00
2018-07-28T05:10:16.319Z,3184.00
2018-07-28T05:11:16.324Z,3228.00
2018-07-28T05:12:16.329Z,3272.00
2018-07-28T05:13:16.336Z,3308.00
2018-07-28T05:14:16.343Z,3344.00
2018-07-28T05:15:16.350Z,3388.00
2018-07-28T05:16:16.353Z,3432.00
2018-07-28T05:17:16.361Z,3488.00
2018-07-28T05:18:16.367Z,3540.00
2018-07-28T05:19:16.372Z,3604.00
2018-07-28T05:20:16.378Z,3668.00
2018-07-28T05:21:16.387Z,3724.00
2018-07-28T05:22:16.392Z,3768.00
2018-07-28T05:23:16.397Z,3812.00
2018-07-28T05:24:16.403Z,3880.00
2018-07-28T05:25:16.408Z,3944.00
2018-07-28T05:26:16.415Z,3996.00
2018-07-28T05:27:16.423Z,4044.00
2018-07-28T05:28:16.426Z,4076.00
2018-07-28T05:29:16.432Z,4100.00
2018-07-28T05:30:16.440Z,4124.00
2018-07-28T05:31:16.446Z,4152.00
2018-07-28T05:32:16.454Z,4200.00
2018-07-28T05:33:16.459Z,4232.00
2018-07-28T05:34:16.465Z,4252.00
2018-07-28T05:35:16.472Z,4280.00
2018-07-28T05:36:16.477Z,4312.00
2018-07-28T05:37:16.495Z,4344.00
2018-07-28T05:38:16.491Z,4364.00
2018-07-28T05:39:16.497Z,4380.00
2018-07-28T05:40:16.505Z,4396.00
2018-07-28T05:41:16.519Z,4408.00
2018-07-28T05:42:16.518Z,4428.00
2018-07-28T05:43:16.523Z,4456.00
2018-07-28T05:44:16.529Z,4492.00
2018-07-28T05:45:16.535Z,4520.00
2018-07-28T05:46:16.540Z,4536.00
2018-07-28T05:47:16.548Z,4544.00
2018-07-28T05:48:16.554Z,4552.00
2018-07-28T05:49:16.561Z,4556.00
2018-07-28T05:50:16.567Z,4556.00
2018-07-28T05:51:16.574Z,4568.00
2018-07-28T05:52:16.580Z,4576.00
2018-07-28T05:53:16.586Z,4584.00
2018-07-28T05:54:16.593Z,4584.00
2018-07-28T05:55:16.605Z,4580.00
2018-07-28T05:56:16.606Z,4588.00
2018-07-28T05:57:16.613Z,4616.00
2018-07-28T05:58:16.621Z,4656.00
2018-07-28T05:59:16.630Z,4712.00
2018-07-28T06:00:16.636Z,4756.00
2018-07-28T06:01:16.639Z,4800.00
2018-07-28T06:02:16.660Z,4808.00
2018-07-28T06:03:16.653Z,4800.00
2018-07-28T06:04:16.659Z,4792.00
2018-07-28T06:05:16.667Z,4800.00
2018-07-28T06:06:16.676Z,4812.00
2018-07-28T06:07:16.682Z,4820.00
2018-07-28T06:08:16.686Z,4832.00
2018-07-28T06:09:16.694Z,4860.00
2018-07-28T06:10:16.703Z,4900.00
2018-07-28T06:11:16.707Z,4944.00
2018-07-28T06:12:16.714Z,4988.00
2018-07-28T06:13:16.720Z,5032.00
2018-07-28T06:14:16.780Z,5076.00
2018-07-28T06:15:16.734Z,5124.00
2018-07-28T06:16:16.740Z,5164.00
2018-07-28T06:17:16.748Z,5184.00
2018-07-28T06:18:16.758Z,5212.00
2018-07-28T06:19:16.762Z,5232.00
2018-07-28T06:20:16.801Z,5248.00
2018-07-28T06:21:16.778Z,5264.00
2018-07-28T06:22:16.783Z,5272.00
2018-07-28T06:23:16.789Z,5276.00
2018-07-28T06:24:16.796Z,5284.00
2018-07-28T06:25:16.804Z,5280.00
2018-07-28T06:26:16.814Z,5280.00
2018-07-28T06:27:16.818Z,5284.00
2018-07-28T06:28:16.827Z,5308.00
2018-07-28T06:29:16.830Z,5360.00
2018-07-28T06:30:16.840Z,5416.00
2018-07-28T06:31:16.855Z,5452.00
2018-07-28T06:32:16.854Z,5484.00
2018-07-28T06:33:16.860Z,5508.00
2018-07-28T06:34:16.869Z,5520.00
2018-07-28T06:35:16.876Z,5552.00
2018-07-28T06:36:16.882Z,5588.00
2018-07-28T06:37:16.890Z,5628.00
2018-07-28T06:38:16.897Z,5676.00
2018-07-28T06:39:16.905Z,5744.00
2018-07-28T06:40:16.912Z,5808.00
2018-07-28T06:41:16.923Z,5880.00
2018-07-28T06:42:16.926Z,5944.00
2018-07-28T06:43:16.933Z,6020.00
2018-07-28T06:44:16.940Z,6092.00
2018-07-28T06:45:16.948Z,6168.00
2018-07-28T06:46:16.954Z,6264.00
2018-07-28T06:47:16.992Z,6364.00
2018-07-28T06:48:16.969Z,6472.00
2018-07-28T06:49:16.976Z,6604.00
2018-07-28T06:50:16.986Z,6732.00
2018-07-28T06:51:16.992Z,6848.00
2018-07-28T06:52:17.000Z,6904.00
2018-07-28T06:53:17.006Z,6472.00
2018-07-28T06:54:17.014Z,6552.00
2018-07-28T06:55:17.023Z,6568.00
2018-07-28T06:56:17.031Z,6652.00
2018-07-28T06:57:17.037Z,6704.00
2018-07-28T06:58:17.044Z,6828.00
2018-07-28T06:59:17.052Z,6980.00
2018-07-28T07:00:17.060Z,7340.00
2018-07-28T07:01:17.067Z,8136.00
2018-07-28T07:02:17.074Z,8864.00
2018-07-28T07:03:17.081Z,9560.00
2018-07-28T07:04:17.095Z,9488.00
2018-07-28T07:05:17.097Z,8764.00
2018-07-28T07:06:17.104Z,8444.00
2018-07-28T07:07:17.112Z,8228.00
2018-07-28T07:08:17.119Z,8156.00
2018-07-28T07:09:17.127Z,8248.00
2018-07-28T07:10:17.139Z,8340.00
2018-07-28T07:11:17.145Z,8940.00
2018-07-28T07:12:17.150Z,11028.00
2018-07-28T07:13:17.158Z,13072.00
2018-07-28T07:14:17.168Z,13288.00
2018-07-28T07:15:17.175Z,12920.00
2018-07-28T07:16:17.181Z,11792.00
2018-07-28T07:17:17.189Z,9672.00
2018-07-28T07:18:17.198Z,9964.00
2018-07-28T07:19:17.205Z,12332.00
2018-07-28T07:20:17.213Z,13972.00
2018-07-28T07:21:17.220Z,14192.00
2018-07-28T07:22:17.228Z,14252.00
2018-07-28T07:23:17.237Z,13036.00
2018-07-28T07:24:17.245Z,14528.00
2018-07-28T07:25:17.252Z,14672.00
2018-07-28T07:26:17.262Z,14224.00
2018-07-28T07:27:17.270Z,12596.00
2018-07-28T07:28:17.277Z,12024.00
2018-07-28T07:29:17.289Z,12448.00
2018-07-28T07:30:17.300Z,12772.00
2018-07-28T07:31:17.303Z,13804.00
2018-07-28T07:32:17.310Z,13500.00
2018-07-28T07:33:17.318Z,14500.00
2018-07-28T07:34:17.328Z,15092.00
2018-07-28T07:35:17.336Z,14984.00
2018-07-28T07:36:17.388Z,16080.00
2018-07-28T07:37:17.354Z,17184.00
2018-07-28T07:38:17.361Z,15712.00
2018-07-28T07:39:17.372Z,14084.00
2018-07-28T07:40:17.379Z,12772.00
2018-07-28T07:41:17.389Z,11924.00
2018-07-28T07:42:17.396Z,11028.00
2018-07-28T07:43:17.405Z,10252.00
2018-07-28T07:44:17.413Z,9740.00
2018-07-28T07:45:17.423Z,9592.00
2018-07-28T07:46:17.433Z,9564.00
2018-07-28T07:47:17.477Z,9544.00
2018-07-28T07:48:17.448Z,9420.00
2018-07-28T07:49:17.459Z,9120.00
2018-07-28T07:50:17.469Z,8892.00
2018-07-28T07:51:17.476Z,8892.00
2018-07-28T07:52:17.484Z,9332.00
2018-07-28T07:53:17.494Z,9000.00
2018-07-28T07:54:17.504Z,8944.00
2018-07-28T07:55:17.513Z,9776.00
2018-07-28T07:56:17.541Z,11556.00
2018-07-28T07:57:17.529Z,13216.00
2018-07-28T07:58:17.539Z,12428.00
2018-07-28T07:59:17.549Z,13276.00
2018-07-28T08:00:17.559Z,10348.00
2018-07-28T08:01:17.565Z,9608.00
2018-07-28T08:02:17.574Z,7992.00
2018-07-28T08:03:17.584Z,7108.00
2018-07-28T08:04:17.591Z,6396.00
2018-07-28T08:05:17.609Z,5708.00
2018-07-28T08:06:17.616Z,5128.00
2018-07-28T08:07:17.619Z,4632.00
2018-07-28T08:08:17.629Z,4212.00
2018-07-28T08:09:17.638Z,3884.00
2018-07-28T08:10:17.646Z,3668.00
2018-07-28T08:11:17.655Z,3540.00
2018-07-28T08:12:17.663Z,3504.00
2018-07-28T08:13:17.673Z,3512.00
2018-07-28T08:14:17.681Z,3564.00
2018-07-28T08:15:17.690Z,3616.00
2018-07-28T08:16:17.699Z,3636.00
2018-07-28T08:17:17.707Z,3668.00
2018-07-28T08:18:17.715Z,3680.00
2018-07-28T08:19:17.726Z,3568.00
2018-07-28T08:20:17.735Z,3416.00
2018-07-28T08:21:17.742Z,3236.00
2018-07-28T08:22:17.750Z,3036.00
2018-07-28T08:23:17.761Z,2852.00
2018-07-28T08:24:17.767Z,2708.00
2018-07-28T08:25:17.775Z,2608.00
2018-07-28T08:26:17.784Z,2524.00
2018-07-28T08:27:17.792Z,2416.00
2018-07-28T08:28:17.800Z,2348.00
2018-07-28T08:29:17.811Z,2296.00
2018-07-28T08:30:17.818Z,2244.00
2018-07-28T08:31:17.827Z,2228.00
2018-07-28T08:32:17.834Z,2264.00
2018-07-28T08:33:17.896Z,2328.00
2018-07-28T08:34:17.852Z,2444.00
2018-07-28T08:35:17.859Z,2584.00
2018-07-28T08:36:17.868Z,2732.00
2018-07-28T08:37:17.880Z,2896.00
2018-07-28T08:38:17.885Z,3108.00
2018-07-28T08:39:17.892Z,3384.00
2018-07-28T08:40:17.900Z,3672.00
2018-07-28T08:41:17.908Z,3924.00
2018-07-28T08:42:17.916Z,4216.00
2018-07-28T08:43:17.925Z,4488.00
2018-07-28T08:44:17.933Z,4844.00
2018-07-28T08:45:17.940Z,5012.00
2018-07-28T08:46:17.950Z,4996.00
2018-07-28T08:47:17.957Z,5016.00
2018-07-28T08:48:17.966Z,5072.00
2018-07-28T08:49:18.058Z,5192.00
2018-07-28T08:50:17.982Z,5284.00
2018-07-28T08:51:17.988Z,5520.00
2018-07-28T08:52:17.996Z,5736.00
2018-07-28T08:53:18.006Z,5824.00
2018-07-28T08:54:18.014Z,5780.00
2018-07-28T08:55:18.022Z,5812.00
2018-07-28T08:56:18.031Z,5900.00
2018-07-28T08:57:18.040Z,5832.00
2018-07-28T08:58:18.046Z,5712.00
2018-07-28T08:59:18.055Z,5636.00
2018-07-28T09:00:18.062Z,5564.00
2018-07-28T09:01:18.071Z,5552.00
2018-07-28T09:02:18.080Z,5572.00
2018-07-28T09:03:18.088Z,5572.00
2018-07-28T09:04:18.096Z,5468.00
2018-07-28T09:05:18.105Z,5244.00
2018-07-28T09:06:18.113Z,4968.00
2018-07-28T09:07:18.123Z,4812.00
2018-07-28T09:08:18.130Z,4784.00
2018-07-28T09:09:18.138Z,4872.00
2018-07-28T09:10:18.148Z,4976.00
2018-07-28T09:11:18.156Z,5068.00
2018-07-28T09:12:18.223Z,5128.00
2018-07-28T09:13:18.174Z,5144.00
2018-07-28T09:14:18.185Z,4996.00
2018-07-28T09:15:18.191Z,4684.00
2018-07-28T09:16:18.230Z,4204.00
2018-07-28T09:17:18.208Z,3712.00
2018-07-28T09:18:18.216Z,3304.00
2018-07-28T09:19:18.223Z,3032.00
2018-07-28T09:20:18.234Z,2916.00
2018-07-28T09:21:18.242Z,2932.00
2018-07-28T09:22:18.250Z,3060.00
2018-07-28T09:23:18.306Z,3288.00
2018-07-28T09:24:18.268Z,3584.00
2018-07-28T09:25:18.275Z,3876.00
2018-07-28T09:26:18.284Z,4156.00
2018-07-28T09:27:18.293Z,4488.00
2018-07-28T09:28:18.301Z,4896.00
2018-07-28T09:29:18.310Z,5500.00
2018-07-28T09:30:18.319Z,6124.00
2018-07-28T09:31:18.328Z,6664.00
2018-07-28T09:32:18.340Z,7116.00
2018-07-28T09:33:18.345Z,7584.00
2018-07-28T09:34:18.353Z,8160.00
2018-07-28T09:35:18.361Z,8776.00
2018-07-28T09:36:18.370Z,9256.00
2018-07-28T09:37:18.379Z,9576.00
2018-07-28T09:38:18.388Z,9252.00
2018-07-28T09:39:18.397Z,8680.00
2018-07-28T09:40:18.404Z,7868.00
2018-07-28T09:41:18.412Z,6912.00
2018-07-28T09:42:18.423Z,5956.00
2018-07-28T09:43:18.432Z,5212.00
2018-07-28T09:44:18.440Z,4852.00
2018-07-28T09:45:18.449Z,4752.00
2018-07-28T09:46:18.500Z,5196.00
2018-07-28T09:47:18.466Z,6320.00
2018-07-28T09:48:18.473Z,6908.00
2018-07-28T09:49:18.482Z,7744.00
2018-07-28T09:50:18.491Z,8388.00
2018-07-28T09:51:18.502Z,8404.00
2018-07-28T09:52:18.509Z,8196.00
2018-07-28T09:53:18.518Z,7944.00
2018-07-28T09:54:18.527Z,7940.00
2018-07-28T09:55:18.535Z,8052.00
2018-07-28T09:56:18.587Z,8016.00
2018-07-28T09:57:18.552Z,7932.00
2018-07-28T09:58:18.560Z,7876.00
2018-07-28T09:59:18.569Z,7952.00
2018-07-28T10:00:18.580Z,8228.00
2018-07-28T10:01:18.589Z,8000.00
2018-07-28T10:02:18.595Z,7832.00
2018-07-28T10:03:18.604Z,7540.00
2018-07-28T10:04:18.614Z,7104.00
2018-07-28T10:05:18.620Z,6748.00
2018-07-28T10:06:18.630Z,6272.00
2018-07-28T10:07:18.638Z,5820.00
2018-07-28T10:08:18.646Z,5444.00
2018-07-28T10:09:18.654Z,5172.00
2018-07-28T10:10:18.665Z,4928.00
2018-07-28T10:11:18.674Z,4736.00
2018-07-28T10:12:18.680Z,4500.00
2018-07-28T10:13:18.689Z,4160.00
2018-07-28T10:14:18.699Z,3748.00
2018-07-28T10:15:18.707Z,3344.00
2018-07-28T10:16:18.799Z,2984.00
2018-07-28T10:17:18.723Z,2704.00
2018-07-28T10:18:18.731Z,2516.00
2018-07-28T10:19:18.740Z,2348.00
2018-07-28T10:20:18.748Z,2224.00
2018-07-28T10:21:18.757Z,2180.00
2018-07-28T10:22:18.766Z,2136.00
2018-07-28T10:23:18.774Z,2136.00
2018-07-28T10:24:18.782Z,2180.00
2018-07-28T10:25:18.789Z,2304.00
2018-07-28T10:26:18.797Z,2484.00
2018-07-28T10:27:18.805Z,2724.00
2018-07-28T10:28:18.813Z,2984.00
2018-07-28T10:29:18.821Z,3292.00
2018-07-28T10:30:18.904Z,3568.00
2018-07-28T10:31:18.837Z,3748.00
2018-07-28T10:32:18.845Z,3620.00
2018-07-28T10:33:18.853Z,3492.00
2018-07-28T10:34:18.862Z,3612.00
2018-07-28T10:35:18.870Z,4064.00
2018-07-28T10:36:18.912Z,4760.00
2018-07-28T10:37:18.885Z,5636.00
2018-07-28T10:38:18.893Z,6532.00
2018-07-28T10:39:18.901Z,7232.00
2018-07-28T10:40:18.908Z,7744.00
2018-07-28T10:41:18.915Z,8048.00
2018-07-28T10:42:18.925Z,8240.00
2018-07-28T10:43:18.932Z,8492.00
2018-07-28T10:44:18.939Z,8976.00
2018-07-28T10:45:18.947Z,9692.00
2018-07-28T10:46:18.956Z,10608.00
2018-07-28T10:47:18.966Z,11364.00
2018-07-28T10:48:18.971Z,12028.00
2018-07-28T10:49:18.980Z,12420.00
2018-07-28T10:50:18.989Z,12392.00
2018-07-28T10:51:18.996Z,13424.00
2018-07-28T10:52:19.004Z,12008.00
2018-07-28T10:53:19.012Z,11260.00
2018-07-28T10:54:19.022Z,9716.00
2018-07-28T10:55:19.029Z,9132.00
2018-07-28T10:56:19.038Z,8616.00
2018-07-28T10:57:19.046Z,8260.00
2018-07-28T10:58:19.055Z,8088.00
2018-07-28T10:59:19.066Z,8096.00
2018-07-28T11:00:19.131Z,8324.00
2018-07-28T11:01:19.081Z,8708.00
2018-07-28T11:02:19.091Z,9056.00
2018-07-28T11:03:19.099Z,9288.00
2018-07-28T11:04:19.106Z,9448.00
2018-07-28T11:05:19.115Z,9592.00
2018-07-28T11:06:19.126Z,9828.00
2018-07-28T11:07:19.133Z,9576.00
2018-07-28T11:08:19.142Z,9716.00
2018-07-28T11:09:19.150Z,10220.00
2018-07-28T11:10:19.160Z,10992.00
2018-07-28T11:11:19.170Z,11360.00
2018-07-28T11:12:19.178Z,11088.00
2018-07-28T11:13:19.188Z,11500.00
2018-07-28T11:14:19.195Z,10384.00
2018-07-28T11:15:19.204Z,11220.00
2018-07-28T11:16:19.213Z,10736.00
2018-07-28T11:17:19.225Z,10280.00
2018-07-28T11:18:19.232Z,10372.00
2018-07-28T11:19:19.241Z,10580.00
2018-07-28T11:20:19.251Z,10884.00
2018-07-28T11:21:19.259Z,10868.00
2018-07-28T11:22:19.270Z,10700.00
2018-07-28T11:23:19.280Z,10352.00
2018-07-28T11:24:19.288Z,9844.00
2018-07-28T11:25:19.298Z,9428.00
2018-07-28T11:26:19.340Z,9060.00
2018-07-28T11:27:19.316Z,8928.00
2018-07-28T11:28:19.325Z,9024.00
2018-07-28T11:29:19.336Z,9380.00
2018-07-28T11:30:19.346Z,9868.00
2018-07-28T11:31:19.356Z,10380.00
2018-07-28T11:32:19.366Z,10440.00
2018-07-28T11:33:19.423Z,10412.00
2018-07-28T11:34:19.384Z,10468.00
2018-07-28T11:35:19.397Z,10516.00
2018-07-28T11:36:19.402Z,11332.00
2018-07-28T11:37:19.412Z,12452.00
2018-07-28T11:38:19.423Z,14808.00
2018-07-28T11:39:19.432Z,17088.00
2018-07-28T11:40:19.441Z,14128.00
2018-07-28T11:41:19.451Z,13088.00
2018-07-28T11:42:19.460Z,12588.00
2018-07-28T11:43:19.472Z,12604.00
2018-07-28T11:44:19.481Z,11596.00
2018-07-28T11:45:19.491Z,10908.00
2018-07-28T11:46:19.501Z,10276.00
2018-07-28T11:47:19.515Z,9660.00
2018-07-28T11:48:19.522Z,9152.00
2018-07-28T11:49:19.530Z,8612.00
2018-07-28T11:50:19.540Z,8108.00
2018-07-28T11:51:19.565Z,7840.00
2018-07-28T11:52:19.562Z,7692.00
2018-07-28T11:53:19.576Z,7540.00
2018-07-28T11:54:19.581Z,7444.00
2018-07-28T11:55:19.596Z,7452.00
2018-07-28T11:56:19.602Z,7500.00
2018-07-28T11:57:19.611Z,7560.00
2018-07-28T11:58:19.657Z,7668.00
2018-07-28T11:59:19.634Z,7792.00
2018-07-28T12:00:19.641Z,8008.00
2018-07-28T12:01:19.652Z,8404.00
2018-07-28T12:02:19.661Z,9048.00
2018-07-28T12:03:19.671Z,9868.00
2018-07-28T12:04:19.681Z,11036.00
2018-07-28T12:05:19.691Z,11676.00
2018-07-28T12:06:19.702Z,12644.00
2018-07-28T12:07:19.710Z,12880.00
2018-07-28T12:08:19.725Z,13272.00
2018-07-28T12:09:19.730Z,13332.00
2018-07-28T12:10:19.741Z,15692.00
2018-07-28T12:11:19.750Z,13160.00
2018-07-28T12:12:19.759Z,12216.00
2018-07-28T12:13:19.770Z,11624.00
2018-07-28T12:14:19.780Z,11780.00
2018-07-28T12:15:19.791Z,10420.00
2018-07-28T12:16:19.799Z,8072.00
2018-07-28T12:17:19.811Z,8256.00
2018-07-28T12:18:19.866Z,8420.00
2018-07-28T12:19:19.832Z,8212.00
2018-07-28T12:20:19.842Z,8088.00
2018-07-28T12:21:19.851Z,7620.00
2018-07-28T12:22:19.890Z,7312.00
2018-07-28T12:23:19.873Z,7364.00